Terminal Aerodrome Forecast
Issued by NWS

Home | Current Version | Previous Version | Text Only | Print | Product List | Glossary Off
Versions: 1 2 3 4 5 6 7 8 9 10 11 12 13 14 15 16 17 18

000
FTUS43 KICT 172323
TAFHUT
TAF
KHUT 172323Z 1800/1824 16016G24KT P6SM FEW250
     FM180200 20016G24KT P6SM FEW250 WS020/20055KT
     FM180600 30026G35KT P6SM FEW250 WS020/31055KT
     FM181200 32024G34KT P6SM FEW250=

USA.gov is the U.S. government's official web portal to all federal, state and local government web resources and services.